createdAt,value
2019-04-27T00:03:36.501Z,12.30
2019-04-27T00:07:43.950Z,12.10
2019-04-27T00:11:54.046Z,12.30
2019-04-27T00:16:23.490Z,12.40
2019-04-27T00:20:55.232Z,12.40
2019-04-27T00:25:00.868Z,12.60
2019-04-27T00:29:04.637Z,12.40
2019-04-27T00:33:11.274Z,12.40
2019-04-27T00:37:58.015Z,12.20
2019-04-27T00:42:03.191Z,12.30
2019-04-27T00:46:06.723Z,12.40
2019-04-27T00:50:16.205Z,12.30
2019-04-27T00:54:23.790Z,12.20
2019-04-27T00:58:37.572Z,12.10
2019-04-27T01:03:15.142Z,12.10
2019-04-27T01:07:19.610Z,12.00
2019-04-27T01:11:25.892Z,12.10
2019-04-27T01:15:31.141Z,12.00
2019-04-27T01:19:34.921Z,12.00
2019-04-27T01:23:41.855Z,11.90
2019-04-27T01:27:59.611Z,11.90
2019-04-27T01:32:04.276Z,12.00
2019-04-27T01:36:08.923Z,11.70
2019-04-27T01:40:13.080Z,11.70
2019-04-27T01:44:19.770Z,11.70
2019-04-27T01:48:25.768Z,11.60
2019-04-27T01:52:29.151Z,11.40
2019-04-27T01:56:34.391Z,11.40
2019-04-27T02:01:07.328Z,11.20
2019-04-27T02:05:39.043Z,11.50
2019-04-27T02:09:44.520Z,11.20
2019-04-27T02:13:48.818Z,11.20
2019-04-27T02:17:53.498Z,11.20
2019-04-27T02:22:00.150Z,11.40
2019-04-27T02:26:06.418Z,11.60
2019-04-27T02:30:30.635Z,11.60
2019-04-27T02:34:56.583Z,11.30
2019-04-27T02:38:59.754Z,11.50
2019-04-27T02:43:04.899Z,11.50
2019-04-27T02:47:10.502Z,11.50
2019-04-27T02:51:16.817Z,11.20
2019-04-27T02:55:20.074Z,11.40
2019-04-27T02:59:23.854Z,11.50
2019-04-27T03:03:29.979Z,11.50
2019-04-27T03:07:32.479Z,11.20
2019-04-27T03:11:36.042Z,11.60
2019-04-27T03:16:11.388Z,11.30
2019-04-27T03:20:50.179Z,11.20
2019-04-27T03:25:15.701Z,11.20
2019-04-27T03:29:22.948Z,11.00
2019-04-27T03:33:27.359Z,11.20
2019-04-27T03:37:33.372Z,11.00
2019-04-27T03:41:37.223Z,11.40
2019-04-27T03:45:40.537Z,11.40
2019-04-27T03:49:45.406Z,11.10
2019-04-27T03:54:10.908Z,11.10
2019-04-27T03:58:21.678Z,11.00
2019-04-27T04:02:25.114Z,11.20
2019-04-27T04:06:29.513Z,11.00
2019-04-27T04:10:34.905Z,10.80
2019-04-27T04:14:42.480Z,10.90
2019-04-27T04:19:00.803Z,10.60
2019-04-27T04:23:04.302Z,10.60
2019-04-27T04:27:09.662Z,10.60
2019-04-27T04:31:13.865Z,10.70
2019-04-27T04:35:22.666Z,10.60
2019-04-27T04:39:25.666Z,10.60
2019-04-27T04:43:40.118Z,10.50
2019-04-27T04:47:54.547Z,10.70
2019-04-27T04:51:59.445Z,10.90
2019-04-27T04:56:02.236Z,10.80
2019-04-27T05:00:05.585Z,11.10
2019-04-27T05:04:19.332Z,10.90
2019-04-27T05:08:22.939Z,10.70
2019-04-27T05:12:35.018Z,11.00
2019-04-27T05:16:39.088Z,10.80
2019-04-27T05:20:59.780Z,11.30
2019-04-27T05:25:02.770Z,10.60
2019-04-27T05:29:05.707Z,10.40
2019-04-27T05:33:11.722Z,10.60
2019-04-27T05:37:14.791Z,10.90
2019-04-27T05:41:18.731Z,10.90
2019-04-27T05:46:35.654Z,11.20
2019-04-27T05:50:45.362Z,10.90
2019-04-27T05:54:43.770Z,10.70
2019-04-27T05:58:46.904Z,11.20
2019-04-27T06:02:56.172Z,11.10
2019-04-27T06:07:00.997Z,10.90
2019-04-27T06:11:04.204Z,11.00
2019-04-27T06:15:09.528Z,11.00
2019-04-27T06:19:16.086Z,10.80
2019-04-27T06:23:21.015Z,10.80
2019-04-27T06:27:25.690Z,11.10
2019-04-27T06:31:31.862Z,10.90
2019-04-27T06:35:34.917Z,11.30
2019-04-27T06:39:38.654Z,11.10
2019-04-27T06:43:42.087Z,11.30
2019-04-27T06:47:45.829Z,11.60
2019-04-27T06:51:49.775Z,11.80
2019-04-27T06:55:54.425Z,11.80
2019-04-27T06:59:59.146Z,11.90
2019-04-27T07:08:31.273Z,11.90
2019-04-27T07:12:34.369Z,11.90
2019-04-27T07:16:39.061Z,12.10
2019-04-27T07:20:42.356Z,12.10
2019-04-27T07:24:46.551Z,12.30
2019-04-27T07:28:59.905Z,12.30
2019-04-27T07:33:03.825Z,12.40
2019-04-27T07:37:16.270Z,12.50
2019-04-27T07:41:24.044Z,12.50
2019-04-27T07:45:31.638Z,12.80
2019-04-27T07:49:41.401Z,12.80
2019-04-27T07:53:52.143Z,13.00
2019-04-27T07:57:55.266Z,13.10
2019-04-27T08:02:01.597Z,13.10
2019-04-27T08:06:08.803Z,13.20
2019-04-27T08:10:13.766Z,13.30
2019-04-27T08:14:18.523Z,13.30
2019-04-27T08:18:21.815Z,13.50
2019-04-27T08:22:31.606Z,13.60
2019-04-27T08:27:00.612Z,13.60
2019-04-27T08:31:12.422Z,13.70
2019-04-27T08:35:17.003Z,13.90
2019-04-27T08:39:21.094Z,14.00
2019-04-27T08:43:25.396Z,14.20
2019-04-27T08:47:29.535Z,14.40
2019-04-27T08:51:37.039Z,14.50
2019-04-27T08:55:42.154Z,14.60
2019-04-27T08:59:54.206Z,14.70
2019-04-27T09:03:59.220Z,14.70
2019-04-27T09:08:49.511Z,14.70
2019-04-27T09:13:12.154Z,14.80
2019-04-27T09:17:45.716Z,15.00
2019-04-27T09:22:12.719Z,15.20
2019-04-27T09:26:06.384Z,15.20
2019-04-27T09:30:10.274Z,15.30
2019-04-27T09:34:16.838Z,15.40
2019-04-27T09:38:29.884Z,15.40
2019-04-27T09:42:32.719Z,15.60
2019-04-27T09:46:38.733Z,16.00
2019-04-27T09:50:46.561Z,16.00
2019-04-27T09:54:49.189Z,16.50
2019-04-27T09:58:51.976Z,16.40
2019-04-27T10:02:56.437Z,16.20
2019-04-27T10:07:06.233Z,16.00
2019-04-27T10:11:09.233Z,16.00
2019-04-27T10:15:12.293Z,15.80
2019-04-27T10:19:27.873Z,15.80
2019-04-27T10:23:22.852Z,16.30
2019-04-27T10:27:29.628Z,16.60
2019-04-27T10:31:32.502Z,16.50
2019-04-27T10:35:36.311Z,16.80
2019-04-27T10:39:45.990Z,17.60
2019-04-27T10:43:51.900Z,17.50
2019-04-27T10:47:58.284Z,17.10
2019-04-27T10:52:05.839Z,17.20
2019-04-27T10:56:08.857Z,17.60
2019-04-27T11:00:16.685Z,17.30
2019-04-27T11:04:38.168Z,17.40
2019-04-27T11:08:42.201Z,17.20
2019-04-27T11:12:45.845Z,17.60
2019-04-27T11:16:48.896Z,17.80
2019-04-27T11:20:52.045Z,17.50
2019-04-27T11:24:56.348Z,17.70
2019-04-27T11:28:59.337Z,17.80
2019-04-27T11:33:08.456Z,17.50
2019-04-27T11:37:11.278Z,17.50
2019-04-27T11:41:16.853Z,17.40
2019-04-27T11:45:19.861Z,17.50
2019-04-27T11:49:22.633Z,17.70
2019-04-27T11:53:26.203Z,18.00
2019-04-27T11:57:29.209Z,18.10
2019-04-27T12:01:32.042Z,17.70
2019-04-27T12:05:36.279Z,17.60
2019-04-27T12:09:42.095Z,17.40
2019-04-27T12:13:46.131Z,17.40
2019-04-27T12:17:49.324Z,17.50
2019-04-27T12:21:52.181Z,17.40
2019-04-27T12:25:56.304Z,17.60
2019-04-27T12:30:07.559Z,17.80
2019-04-27T12:34:10.394Z,18.40
2019-04-27T12:38:13.178Z,18.60
2019-04-27T12:42:16.319Z,18.90
2019-04-27T12:46:19.132Z,18.80
2019-04-27T12:50:22.030Z,18.10
2019-04-27T12:54:44.295Z,17.90
2019-04-27T12:58:51.309Z,18.20
2019-04-27T13:02:55.595Z,18.50
2019-04-27T13:06:58.709Z,18.80
2019-04-27T13:11:01.455Z,19.00
2019-04-27T13:15:05.729Z,18.90
2019-04-27T13:19:08.582Z,18.80
2019-04-27T13:23:11.455Z,18.90
2019-04-27T13:27:14.410Z,18.80
2019-04-27T13:31:17.190Z,18.20
2019-04-27T13:35:19.967Z,18.10
2019-04-27T13:39:22.766Z,18.10
2019-04-27T13:43:31.144Z,18.00
2019-04-27T13:47:56.231Z,17.90
2019-04-27T13:52:36.813Z,17.90
2019-04-27T13:56:43.407Z,16.80
2019-04-27T14:00:46.178Z,15.60
2019-04-27T14:04:48.997Z,15.20
2019-04-27T14:08:51.844Z,15.00
2019-04-27T14:12:54.682Z,14.70
2019-04-27T14:17:07.879Z,14.50
2019-04-27T14:21:11.073Z,14.40
2019-04-27T14:25:14.128Z,14.00
2019-04-27T14:29:18.774Z,13.60
2019-04-27T14:33:21.576Z,13.20
2019-04-27T14:37:24.434Z,13.30
2019-04-27T14:41:30.197Z,13.30
2019-04-27T14:45:35.438Z,13.10
2019-04-27T14:49:42.960Z,13.10
2019-04-27T14:53:48.783Z,13.20
2019-04-27T14:57:51.522Z,13.60
2019-04-27T15:01:55.538Z,14.00
2019-04-27T15:06:01.398Z,14.10
2019-04-27T15:10:05.107Z,14.10
2019-04-27T15:14:09.078Z,14.00
2019-04-27T15:18:12.158Z,14.10
2019-04-27T15:22:23.115Z,14.20
2019-04-27T15:26:25.985Z,14.40
2019-04-27T15:30:50.857Z,14.40
2019-04-27T15:35:05.334Z,14.30
2019-04-27T15:39:15.235Z,14.30
2019-04-27T15:43:27.260Z,14.30
2019-04-27T15:47:29.091Z,14.40
2019-04-27T15:51:31.895Z,14.20
2019-04-27T15:55:38.874Z,14.10
2019-04-27T15:59:40.955Z,14.00
2019-04-27T16:03:48.130Z,14.10
2019-04-27T16:08:15.678Z,14.10
2019-04-27T16:12:18.651Z,14.20
2019-04-27T16:16:24.630Z,13.90
2019-04-27T16:20:30.112Z,13.80
2019-04-27T16:24:30.715Z,13.90
2019-04-27T16:28:33.570Z,14.00
2019-04-27T16:32:36.445Z,14.00
2019-04-27T16:36:43.537Z,14.00
2019-04-27T16:40:46.382Z,14.00
2019-04-27T16:44:53.051Z,14.00
2019-04-27T16:48:54.385Z,13.80
2019-04-27T16:53:00.840Z,13.70
2019-04-27T16:57:05.026Z,13.60
2019-04-27T17:01:21.358Z,13.70
2019-04-27T17:05:28.335Z,13.60
2019-04-27T17:09:29.563Z,13.70
2019-04-27T17:13:34.924Z,13.60
2019-04-27T17:17:51.180Z,13.60
2019-04-27T17:21:58.220Z,13.60
2019-04-27T17:26:09.280Z,13.70
2019-04-27T17:30:08.957Z,13.50
2019-04-27T17:34:12.300Z,13.70
2019-04-27T17:38:17.966Z,13.80
2019-04-27T17:42:22.834Z,13.70
2019-04-27T17:46:25.761Z,13.50
2019-04-27T17:50:31.714Z,13.20
2019-04-27T17:54:40.821Z,12.90
2019-04-27T17:58:42.763Z,12.60
2019-04-27T18:02:45.815Z,12.70
2019-04-27T18:06:48.839Z,12.70
2019-04-27T18:10:53.619Z,12.70
2019-04-27T18:14:58.166Z,12.70
2019-04-27T18:19:23.523Z,12.90
2019-04-27T18:23:28.874Z,12.80
2019-04-27T18:27:39.028Z,12.80
2019-04-27T18:31:42.199Z,12.80
2019-04-27T18:35:45.426Z,12.80
2019-04-27T18:39:50.899Z,12.70
2019-04-27T18:43:55.165Z,12.70
2019-04-27T18:48:06.628Z,12.70
2019-04-27T18:52:27.891Z,12.80
2019-04-27T18:56:38.441Z,12.70
2019-04-27T19:00:38.851Z,12.60
2019-04-27T19:04:45.042Z,12.50
2019-04-27T19:08:48.792Z,12.70
2019-04-27T19:12:51.902Z,12.70
2019-04-27T19:16:54.874Z,12.40
2019-04-27T19:20:58.509Z,12.40
2019-04-27T19:25:01.714Z,12.00
2019-04-27T19:29:09.541Z,11.80
2019-04-27T19:33:12.723Z,11.80
2019-04-27T19:37:15.814Z,11.70
2019-04-27T19:41:18.869Z,11.60
2019-04-27T19:45:21.895Z,11.50
2019-04-27T19:49:24.928Z,11.60
2019-04-27T19:53:27.928Z,11.50
2019-04-27T19:57:37.930Z,11.40
2019-04-27T20:01:40.569Z,11.40
2019-04-27T20:05:43.693Z,11.40
2019-04-27T20:10:03.353Z,11.40
2019-04-27T20:14:06.458Z,11.40
2019-04-27T20:18:10.838Z,11.40
2019-04-27T20:22:14.124Z,11.50
2019-04-27T20:26:19.908Z,11.60
2019-04-27T20:30:23.052Z,11.50
2019-04-27T20:34:26.156Z,11.50
2019-04-27T20:38:29.153Z,11.50
2019-04-27T20:42:32.164Z,11.50
2019-04-27T20:46:35.242Z,11.60
2019-04-27T20:50:38.355Z,11.60
2019-04-27T20:54:41.488Z,11.60
2019-04-27T20:58:47.848Z,11.40
2019-04-27T21:03:19.128Z,11.40
2019-04-27T21:07:37.674Z,11.30
2019-04-27T21:11:47.415Z,11.30
2019-04-27T21:15:54.678Z,11.20
2019-04-27T21:20:00.605Z,11.00
2019-04-27T21:24:03.902Z,10.90
2019-04-27T21:28:16.538Z,11.10
2019-04-27T21:32:12.410Z,10.90
2019-04-27T21:36:16.036Z,10.90
2019-04-27T21:40:21.335Z,10.90
2019-04-27T21:44:24.727Z,10.80
2019-04-27T21:48:31.327Z,10.60
2019-04-27T21:52:44.368Z,10.60
2019-04-27T21:56:47.907Z,10.70
2019-04-27T22:01:11.488Z,10.80
2019-04-27T22:05:16.195Z,10.80
2019-04-27T22:09:19.325Z,10.80
2019-04-27T22:13:25.331Z,10.90
2019-04-27T22:17:31.421Z,10.80
2019-04-27T22:21:34.603Z,10.90
2019-04-27T22:25:42.168Z,11.00
2019-04-27T22:29:45.379Z,11.00
2019-04-27T22:33:48.629Z,11.00
2019-04-27T22:37:52.043Z,11.00
2019-04-27T22:42:26.441Z,11.00
2019-04-27T22:46:30.804Z,10.80
2019-04-27T22:50:34.338Z,10.70
2019-04-27T22:54:43.448Z,10.70
2019-04-27T22:59:06.000Z,10.70
2019-04-27T23:03:12.334Z,10.60
2019-04-27T23:07:15.315Z,10.60
2019-04-27T23:11:21.430Z,10.60
2019-04-27T23:15:37.138Z,10.70
2019-04-27T23:19:40.909Z,10.70
2019-04-27T23:23:45.436Z,10.70
2019-04-27T23:27:54.385Z,10.70
2019-04-27T23:32:08.481Z,10.80
2019-04-27T23:36:11.623Z,10.80
2019-04-27T23:40:15.969Z,10.80
2019-04-27T23:44:19.066Z,10.70
2019-04-27T23:48:22.716Z,10.70
2019-04-27T23:52:47.863Z,10.60
2019-04-27T23:56:51.859Z,10.60
